createdAt,value
2022-08-27T00:00:06.934Z,27.7
2022-08-27T00:05:02.562Z,27.5
2022-08-27T00:10:01.605Z,27.1
2022-08-27T00:15:01.590Z,27.1
2022-08-27T00:20:06.480Z,27.1
2022-08-27T00:25:06.648Z,27.0
2022-08-27T00:30:01.515Z,27.0
2022-08-27T00:35:01.510Z,27.2
2022-08-27T00:40:02.410Z,27.2
2022-08-27T00:45:01.513Z,27.0
2022-08-27T00:50:01.568Z,27.0
2022-08-27T00:55:02.618Z,27.0
2022-08-27T01:00:01.444Z,26.9
2022-08-27T01:05:01.574Z,26.8
2022-08-27T01:10:01.450Z,26.5
2022-08-27T01:15:02.682Z,26.6
2022-08-27T01:20:01.767Z,26.5
2022-08-27T01:25:02.707Z,26.8
2022-08-27T01:30:01.445Z,26.6
2022-08-27T01:35:01.706Z,26.5
2022-08-27T01:40:01.769Z,26.2
2022-08-27T01:45:06.085Z,26.1
2022-08-27T01:50:01.430Z,26.7
2022-08-27T01:55:01.499Z,26.8
2022-08-27T02:00:07.174Z,26.6
2022-08-27T02:15:01.853Z,26.6
2022-08-27T02:20:01.529Z,25.2
2022-08-27T02:25:02.431Z,24.8
2022-08-27T02:30:01.397Z,25.0
2022-08-27T02:35:01.551Z,24.6
2022-08-27T02:40:01.750Z,24.5
2022-08-27T02:45:01.550Z,24.9
2022-08-27T02:50:01.435Z,25.3
2022-08-27T03:00:01.469Z,25.5
2022-08-27T03:05:01.537Z,25.3
2022-08-27T03:15:06.526Z,24.9
2022-08-27T03:30:05.504Z,24.9
2022-08-27T03:35:01.789Z,25.0
2022-08-27T03:40:02.111Z,25.4
2022-08-27T03:45:02.109Z,25.7
2022-08-27T03:55:07.517Z,25.2
2022-08-27T04:00:06.431Z,25.4
2022-08-27T04:05:01.596Z,25.6
2022-08-27T04:10:01.662Z,25.5
2022-08-27T04:30:07.304Z,27.1
2022-08-27T04:40:01.920Z,26.8
2022-08-27T04:45:07.514Z,26.2
2022-08-27T04:50:06.034Z,26.4
2022-08-27T04:55:01.597Z,25.7
2022-08-27T05:00:06.411Z,25.7
2022-08-27T05:05:07.813Z,25.8
2022-08-27T05:10:01.543Z,26.7
2022-08-27T05:15:06.485Z,26.9
2022-08-27T05:20:01.406Z,27.2
2022-08-27T05:25:01.540Z,27.1
2022-08-27T05:30:01.407Z,27.6
2022-08-27T05:35:06.469Z,27.2
2022-08-27T05:40:01.613Z,27.1
2022-08-27T05:45:01.471Z,27.1
2022-08-27T05:55:01.592Z,27.3
2022-08-27T06:00:01.422Z,26.9
2022-08-27T06:05:03.066Z,26.6
2022-08-27T06:10:01.511Z,26.6
2022-08-27T06:15:01.474Z,26.9
2022-08-27T06:20:02.733Z,26.5
2022-08-27T06:30:01.535Z,26.6
2022-08-27T06:35:02.314Z,26.9
2022-08-27T06:40:01.585Z,26.7
2022-08-27T06:45:01.919Z,26.2
2022-08-27T06:50:01.398Z,26.3
2022-08-27T06:55:01.526Z,26.2
2022-08-27T07:00:08.800Z,26.1
2022-08-27T07:10:04.631Z,26.9
2022-08-27T07:15:01.588Z,27.2
2022-08-27T07:20:11.403Z,27.4
2022-08-27T07:25:06.597Z,27.5
2022-08-27T07:30:02.228Z,27.8
2022-08-27T07:35:09.552Z,27.4
2022-08-27T07:40:01.900Z,27.4
2022-08-27T07:45:02.808Z,27.2
2022-08-27T07:50:02.630Z,27.1
2022-08-27T07:55:07.963Z,27.0
2022-08-27T08:00:02.887Z,26.8
2022-08-27T08:10:01.563Z,27.2
2022-08-27T08:15:01.641Z,27.4
2022-08-27T08:30:01.862Z,27.4
2022-08-27T08:35:01.562Z,27.3
2022-08-27T08:40:01.744Z,27.0
2022-08-27T08:45:01.560Z,26.9
2022-08-27T08:50:01.416Z,26.7
2022-08-27T09:00:01.630Z,26.8
2022-08-27T09:05:01.533Z,26.8
2022-08-27T09:15:12.704Z,27.0
2022-08-27T09:20:02.041Z,27.4
2022-08-27T09:25:05.264Z,27.4
2022-08-27T09:45:01.386Z,31.8
2022-08-27T09:50:07.479Z,31.1
2022-08-27T09:55:08.777Z,30.5
2022-08-27T10:00:01.306Z,30.9
2022-08-27T10:05:01.310Z,31.3
2022-08-27T10:55:01.406Z,32.0
2022-08-27T11:05:01.273Z,32.5
2022-08-27T11:25:01.414Z,32.8
2022-08-27T11:30:01.201Z,32.8
2022-08-27T11:35:01.333Z,32.6
2022-08-27T11:40:01.682Z,32.9
2022-08-27T11:55:03.650Z,33.6
2022-08-27T12:15:01.277Z,28.6
2022-08-27T12:20:01.178Z,30.5
2022-08-27T12:25:01.319Z,31.3
2022-08-27T12:30:01.133Z,32.1
2022-08-27T12:35:02.424Z,32.5
2022-08-27T12:40:01.300Z,32.8
2022-08-27T12:45:01.334Z,31.9
2022-08-27T12:50:01.528Z,30.6
2022-08-27T12:55:01.353Z,29.2
2022-08-27T13:20:06.953Z,33.2
2022-08-27T13:30:01.962Z,31.7
2022-08-27T13:35:01.866Z,31.4
2022-08-27T13:40:02.092Z,30.1
2022-08-27T13:45:01.774Z,29.7
2022-08-27T14:00:02.070Z,31.4
2022-08-27T14:20:02.303Z,30.8
2022-08-27T14:25:01.483Z,32.5
2022-08-27T14:30:01.760Z,32.9
2022-08-27T14:35:06.673Z,33.0
2022-08-27T14:40:02.080Z,33.3
2022-08-27T14:55:01.699Z,33.0
2022-08-27T15:00:01.508Z,32.4
2022-08-27T15:05:18.124Z,32.4
2022-08-27T15:10:01.764Z,32.4
2022-08-27T15:15:01.625Z,32.0
2022-08-27T15:20:01.536Z,31.3
2022-08-27T15:25:03.623Z,31.6
2022-08-27T15:35:01.641Z,31.0
2022-08-27T15:40:02.112Z,31.3
2022-08-27T15:50:01.473Z,32.0
2022-08-27T15:55:02.993Z,31.4
2022-08-27T16:00:01.490Z,32.1
2022-08-27T16:05:01.935Z,31.9
2022-08-27T16:10:11.967Z,31.5
2022-08-27T16:15:01.559Z,31.4
2022-08-27T16:20:09.108Z,32.2
2022-08-27T16:40:01.587Z,33.2
2022-08-27T16:45:01.816Z,33.8
2022-08-27T16:50:01.416Z,33.6
2022-08-27T16:55:01.676Z,33.6
2022-08-27T17:10:06.442Z,32.7
2022-08-27T17:25:01.492Z,32.5
2022-08-27T17:35:06.742Z,30.6
2022-08-27T18:00:05.605Z,26.1
2022-08-27T18:05:01.768Z,25.9
2022-08-27T18:10:07.463Z,25.7
2022-08-27T18:15:01.982Z,25.7
2022-08-27T18:20:01.845Z,25.8
2022-08-27T18:25:02.533Z,25.8
2022-08-27T18:30:06.429Z,25.5
2022-08-27T18:35:03.554Z,25.3
2022-08-27T18:45:06.325Z,24.9
2022-08-27T18:50:01.473Z,24.5
2022-08-27T19:05:06.575Z,24.6
2022-08-27T19:10:01.423Z,24.3
2022-08-27T19:15:07.784Z,24.4
2022-08-27T19:20:03.618Z,24.5
2022-08-27T19:25:01.607Z,24.6
2022-08-27T19:30:01.553Z,24.5
2022-08-27T19:35:01.576Z,24.8
2022-08-27T19:45:01.609Z,25.3
2022-08-27T19:50:01.475Z,25.8
2022-08-27T20:00:01.598Z,26.8
2022-08-27T20:10:09.116Z,28.1
2022-08-27T20:15:08.599Z,28.2
2022-08-27T20:20:01.501Z,27.7
2022-08-27T20:25:07.630Z,27.2
2022-08-27T20:30:02.480Z,27.1
2022-08-27T20:50:03.753Z,28.4
2022-08-27T20:55:02.636Z,27.6
2022-08-27T21:00:02.544Z,27.5
2022-08-27T21:10:03.212Z,28.0
2022-08-27T21:20:02.398Z,29.3
2022-08-27T21:25:01.804Z,29.8
2022-08-27T21:30:01.549Z,30.0
2022-08-27T21:35:02.704Z,30.0
2022-08-27T21:40:06.809Z,29.1
2022-08-27T21:50:01.660Z,29.0
2022-08-27T22:00:01.589Z,29.6
2022-08-27T22:10:01.603Z,29.8
2022-08-27T22:20:01.571Z,29.8
2022-08-27T22:25:01.703Z,28.6
2022-08-27T22:35:01.631Z,28.5
2022-08-27T22:40:02.300Z,28.5
2022-08-27T22:50:01.480Z,28.6
2022-08-27T22:55:01.581Z,28.4
2022-08-27T23:00:01.441Z,28.6
2022-08-27T23:05:07.221Z,28.5
2022-08-27T23:10:01.544Z,28.6
2022-08-27T23:20:01.620Z,28.8
2022-08-27T23:25:01.556Z,28.8
2022-08-27T23:40:01.881Z,29.4
2022-08-27T23:50:02.448Z,29.0
2022-08-27T23:55:01.651Z,30.5
